Time;durP1;ratioP1;P1;durP2;ratioP2;P2;SDS_P1;SDS_P2;PMS_P1;PMS_P2;Temp;Humidity;BMP_temperature;BMP_pressure;BME280_temperature;BME280_humidity;BME280_pressure;Samples;Min_cycle;Max_cycle;Signal;HPM_P1;HPM_P2
2023/04/15 00:00:36;;;;;;;7.15;3.63;;;10.90;59.00;;;;;;5053609;28;20024;-65
2023/04/15 00:03:01;;;;;;;7.88;4.20;;;10.90;59.10;;;;;;5052739;28;20719;-67
2023/04/15 00:05:29;;;;;;;5.88;4.05;;;10.90;59.50;;;;;;5052511;28;20021;-66
2023/04/15 00:07:55;;;;;;;5.47;3.50;;;10.90;59.40;;;;;;5055380;28;20035;-67
2023/04/15 00:10:20;;;;;;;5.22;3.78;;;10.90;59.40;;;;;;5051226;28;20029;-66
2023/04/15 00:12:46;;;;;;;4.70;3.85;;;10.90;59.70;;;;;;5048899;28;20025;-66
2023/04/15 00:15:11;;;;;;;5.90;3.60;;;10.80;60.00;;;;;;5052606;28;20028;-66
2023/04/15 00:17:38;;;;;;;7.90;4.60;;;10.80;59.70;;;;;;5051906;28;20021;-68
2023/04/15 00:20:05;;;;;;;6.43;4.15;;;10.80;59.80;;;;;;5054330;28;20403;-66
2023/04/15 00:22:31;;;;;;;7.40;3.85;;;10.80;60.40;;;;;;5034591;28;20515;-69
2023/04/15 00:24:56;;;;;;;7.57;4.13;;;10.70;60.60;;;;;;5052850;28;20021;-66
2023/04/15 00:27:22;;;;;;;6.65;4.30;;;10.70;61.00;;;;;;5049196;28;20029;-66
2023/04/15 00:29:58;;;;;;;6.80;4.85;;;10.70;60.90;;;;;;5053651;28;20040;-67
2023/04/15 00:32:24;;;;;;;7.20;4.38;;;10.60;61.10;;;;;;5054414;28;20029;-67
2023/04/15 00:34:49;;;;;;;8.10;4.60;;;10.60;61.30;;;;;;5051910;28;20028;-68
2023/04/15 00:37:15;;;;;;;6.85;4.22;;;10.60;61.80;;;;;;5051626;28;20041;-66
2023/04/15 00:39:41;;;;;;;6.68;4.50;;;10.60;61.80;;;;;;5053619;28;20029;-66
2023/04/15 00:42:06;;;;;;;6.13;4.13;;;10.50;61.90;;;;;;5060637;28;20383;-67
2023/04/15 00:44:32;;;;;;;4.85;3.83;;;10.50;61.80;;;;;;5056563;28;20031;-67
2023/04/15 00:47:00;;;;;;;5.35;4.00;;;10.50;61.90;;;;;;5052053;28;20032;-67
2023/04/15 00:49:27;;;;;;;6.32;4.10;;;10.50;62.00;;;;;;5053518;28;20029;-66
2023/04/15 00:51:53;;;;;;;5.82;4.15;;;10.40;62.30;;;;;;5052360;28;20072;-66
2023/04/15 00:54:18;;;;;;;7.97;4.75;;;10.40;62.70;;;;;;5053880;28;20483;-67
2023/04/15 00:56:44;;;;;;;6.35;4.03;;;10.40;63.10;;;;;;5056838;28;20025;-66
2023/04/15 00:59:10;;;;;;;7.13;4.53;;;10.40;63.10;;;;;;5053646;28;20553;-66
2023/04/15 01:01:37;;;;;;;7.80;4.07;;;10.30;63.40;;;;;;5052552;28;20475;-67
2023/04/15 01:04:03;;;;;;;6.55;4.53;;;10.30;63.30;;;;;;5051760;28;20028;-67
2023/04/15 01:06:31;;;;;;;7.95;5.10;;;10.30;63.50;;;;;;5050731;28;20029;-68
2023/04/15 01:08:57;;;;;;;13.93;8.13;;;10.30;63.90;;;;;;5056742;28;20032;-67
2023/04/15 01:11:24;;;;;;;7.75;5.03;;;10.30;64.30;;;;;;5055646;28;20013;-68
2023/04/15 01:13:51;;;;;;;7.85;4.50;;;10.20;64.40;;;;;;5055988;28;20056;-67
2023/04/15 01:16:18;;;;;;;7.78;4.55;;;10.20;64.70;;;;;;5068384;28;20028;-66
2023/04/15 01:18:44;;;;;;;8.05;5.38;;;10.30;64.50;;;;;;5051470;28;20032;-67
2023/04/15 01:21:10;;;;;;;7.25;4.57;;;10.30;64.70;;;;;;5034798;28;20487;-67
2023/04/15 01:23:37;;;;;;;6.70;4.88;;;10.20;64.70;;;;;;5058569;28;20047;-66
2023/04/15 01:26:04;;;;;;;6.57;4.78;;;10.20;65.10;;;;;;5049899;28;20041;-66
2023/04/15 01:28:30;;;;;;;6.50;4.82;;;10.20;65.00;;;;;;5046072;28;20043;-66
2023/04/15 01:31:13;;;;;;;8.82;4.97;;;10.20;65.20;;;;;;5065505;28;20025;-67
2023/04/15 01:33:40;;;;;;;6.20;4.88;;;10.20;65.30;;;;;;5050966;28;20071;-67
2023/04/15 01:36:07;;;;;;;7.20;5.07;;;10.20;65.70;;;;;;5051268;28;20056;-68
2023/04/15 01:38:33;;;;;;;8.10;4.78;;;10.10;65.90;;;;;;5047252;28;20033;-68
2023/04/15 01:40:58;;;;;;;6.65;5.00;;;10.10;65.80;;;;;;5063180;28;20032;-67
2023/04/15 01:43:25;;;;;;;7.43;5.60;;;10.10;66.10;;;;;;5029282;28;20112;-66
2023/04/15 01:45:51;;;;;;;7.72;5.10;;;10.10;66.20;;;;;;5050015;28;20036;-65
2023/04/15 01:48:16;;;;;;;7.10;4.88;;;10.10;66.20;;;;;;5050779;28;20032;-67
2023/04/15 01:50:42;;;;;;;8.20;4.90;;;10.10;66.60;;;;;;5052335;28;20025;-68
2023/04/15 01:53:08;;;;;;;6.85;5.32;;;10.10;66.40;;;;;;5036515;28;20104;-68
2023/04/15 01:55:34;;;;;;;7.72;4.82;;;10.00;66.80;;;;;;5050808;28;20043;-66
2023/04/15 01:58:00;;;;;;;6.55;4.43;;;10.10;66.80;;;;;;5050732;28;20029;-66
2023/04/15 02:00:26;;;;;;;7.18;4.55;;;10.10;66.70;;;;;;5051073;28;20017;-67
2023/04/15 02:02:51;;;;;;;7.07;4.65;;;10.00;66.70;;;;;;5047118;28;20025;-68
2023/04/15 02:05:17;;;;;;;6.53;5.28;;;10.00;66.80;;;;;;5053112;28;20032;-67
2023/04/15 02:07:43;;;;;;;7.55;4.70;;;10.00;66.90;;;;;;5052963;28;20064;-66
2023/04/15 02:10:09;;;;;;;7.30;4.68;;;10.00;66.80;;;;;;5050683;28;20037;-68
2023/04/15 02:12:35;;;;;;;6.88;4.78;;;10.00;66.70;;;;;;5053062;28;20028;-68
2023/04/15 02:15:00;;;;;;;5.53;3.88;;;10.00;66.80;;;;;;5052287;28;20110;-67
2023/04/15 02:17:26;;;;;;;4.75;3.63;;;10.10;66.50;;;;;;5044069;28;20028;-67
2023/04/15 02:19:52;;;;;;;4.43;3.63;;;10.10;66.20;;;;;;5052015;28;20104;-67
2023/04/15 02:22:17;;;;;;;4.85;3.67;;;10.10;66.60;;;;;;5051664;28;20025;-67
2023/04/15 02:24:44;;;;;;;5.80;3.72;;;10.10;65.70;;;;;;5063255;28;20029;-68
2023/04/15 02:27:13;;;;;;;6.20;3.60;;;10.10;65.60;;;;;;5060457;28;20025;-66
2023/04/15 02:29:39;;;;;;;4.90;3.60;;;10.10;65.60;;;;;;5042130;28;20028;-67
2023/04/15 02:32:05;;;;;;;4.95;3.80;;;10.10;65.50;;;;;;5059939;28;20032;-68
2023/04/15 02:34:32;;;;;;;4.38;3.65;;;10.10;65.50;;;;;;5050284;28;20021;-67
2023/04/15 02:36:58;;;;;;;4.53;3.60;;;10.00;65.40;;;;;;5054221;28;20025;-66
2023/04/15 02:39:23;;;;;;;6.30;3.80;;;10.00;65.60;;;;;;5049134;28;20021;-68
2023/04/15 02:41:52;;;;;;;6.50;4.00;;;9.90;65.60;;;;;;5049399;28;20061;-66
2023/04/15 02:44:19;;;;;;;5.30;3.78;;;9.90;65.70;;;;;;5049576;28;20400;-68
2023/04/15 02:46:51;;;;;;;5.38;4.43;;;9.80;65.80;;;;;;5049917;28;20051;-66
2023/04/15 02:49:17;;;;;;;6.63;4.55;;;9.60;66.10;;;;;;5046713;28;20021;-68
2023/04/15 02:51:42;;;;;;;5.53;4.13;;;9.60;66.40;;;;;;5050066;28;20040;-67
2023/04/15 02:54:08;;;;;;;6.40;4.53;;;9.50;66.40;;;;;;5049518;28;20029;-68
2023/04/15 02:56:34;;;;;;;6.22;4.53;;;9.50;66.70;;;;;;5053353;28;20085;-68
2023/04/15 02:58:59;;;;;;;6.65;4.35;;;9.40;66.90;;;;;;5049819;28;20036;-66
2023/04/15 03:01:26;;;;;;;7.10;4.50;;;9.30;66.90;;;;;;5050304;28;20017;-66
2023/04/15 03:03:51;;;;;;;5.80;4.57;;;9.30;67.50;;;;;;5047272;28;20013;-66
2023/04/15 03:06:17;;;;;;;6.18;4.55;;;9.20;67.50;;;;;;5050558;28;20373;-67
2023/04/15 03:08:42;;;;;;;7.18;4.55;;;9.20;67.60;;;;;;5052929;28;20115;-68
2023/04/15 03:11:08;;;;;;;10.45;6.03;;;9.20;67.90;;;;;;5052439;28;20064;-66
2023/04/15 03:13:33;;;;;;;6.63;4.90;;;9.00;68.30;;;;;;5051218;28;20033;-66
2023/04/15 03:15:59;;;;;;;6.00;4.60;;;9.00;68.60;;;;;;5049582;28;20021;-67
2023/04/15 03:18:25;;;;;;;5.45;4.38;;;9.00;68.60;;;;;;5048314;28;20035;-68
2023/04/15 03:20:50;;;;;;;9.35;5.15;;;9.00;68.60;;;;;;5062892;28;20096;-66
2023/04/15 03:23:16;;;;;;;6.30;4.53;;;9.00;68.60;;;;;;5051172;28;20104;-69
2023/04/15 03:25:41;;;;;;;5.88;4.68;;;9.00;68.60;;;;;;5049800;28;20021;-66
2023/04/15 03:28:07;;;;;;;6.28;4.15;;;9.00;68.60;;;;;;5049897;28;20041;-67
2023/04/15 03:30:32;;;;;;;6.70;4.32;;;9.00;68.60;;;;;;5052510;28;20047;-67
2023/04/15 03:32:58;;;;;;;6.20;4.45;;;9.00;68.60;;;;;;5067439;28;20104;-66
2023/04/15 03:35:24;;;;;;;5.82;4.20;;;9.00;68.60;;;;;;5056522;28;20043;-67
2023/04/15 03:37:49;;;;;;;7.38;4.95;;;9.00;68.70;;;;;;5065593;28;20029;-68
2023/04/15 03:40:15;;;;;;;9.02;6.18;;;8.90;68.70;;;;;;5062371;28;20028;-69
2023/04/15 03:42:41;;;;;;;6.70;5.32;;;8.90;69.50;;;;;;5063043;28;20037;-67
2023/04/15 03:45:07;;;;;;;6.05;4.60;;;8.80;69.70;;;;;;5035570;28;20024;-67
2023/04/15 03:47:32;;;;;;;8.15;5.30;;;8.80;69.60;;;;;;5062003;28;20479;-67
2023/04/15 03:49:58;;;;;;;6.97;4.95;;;8.80;69.70;;;;;;5058551;28;20040;-69
2023/04/15 03:52:23;;;;;;;7.55;5.20;;;8.80;69.70;;;;;;5060048;28;20021;-67
2023/04/15 03:54:49;;;;;;;8.65;5.90;;;8.70;69.70;;;;;;5068880;28;20379;-67
2023/04/15 03:57:15;;;;;;;7.47;5.47;;;8.70;70.40;;;;;;5059763;28;20025;-68
2023/04/15 03:59:40;;;;;;;6.80;5.50;;;8.70;70.60;;;;;;5038274;28;20120;-67
2023/04/15 04:02:06;;;;;;;6.93;5.45;;;8.60;70.60;;;;;;5053185;28;20025;-67
2023/04/15 04:04:31;;;;;;;10.40;5.90;;;8.60;70.70;;;;;;5051871;28;20570;-68
2023/04/15 04:06:57;;;;;;;7.82;5.55;;;8.60;70.70;;;;;;5053266;28;20071;-66
2023/04/15 04:09:22;;;;;;;6.82;5.25;;;8.60;70.80;;;;;;5060811;28;20063;-66
2023/04/15 04:11:48;;;;;;;7.80;5.60;;;8.60;70.70;;;;;;5053169;28;20052;-68
2023/04/15 04:14:13;;;;;;;7.28;5.38;;;8.60;70.80;;;;;;5072373;28;20029;-67
2023/04/15 04:16:39;;;;;;;6.47;5.20;;;8.60;70.80;;;;;;5052511;28;20063;-67
2023/04/15 04:19:05;;;;;;;8.25;5.35;;;8.60;70.90;;;;;;5054157;28;20029;-67
2023/04/15 04:21:32;;;;;;;7.55;5.63;;;8.50;70.90;;;;;;5052842;28;20025;-68
2023/04/15 04:23:58;;;;;;;6.95;5.05;;;8.50;71.10;;;;;;5070142;28;20031;-67
2023/04/15 04:26:24;;;;;;;6.97;5.43;;;8.50;71.20;;;;;;5039550;28;20033;-67
2023/04/15 04:28:49;;;;;;;8.75;6.10;;;8.40;71.40;;;;;;5052475;28;20488;-66
2023/04/15 04:31:15;;;;;;;7.85;6.13;;;8.40;71.70;;;;;;5046382;28;20033;-67
2023/04/15 04:33:41;;;;;;;7.15;5.85;;;8.40;71.80;;;;;;5033620;28;20495;-68
2023/04/15 04:36:06;;;;;;;7.60;5.95;;;8.30;72.20;;;;;;5052185;28;20023;-67
2023/04/15 04:38:32;;;;;;;8.27;6.13;;;8.30;72.40;;;;;;5053549;28;20017;-67
2023/04/15 04:40:58;;;;;;;8.77;5.40;;;8.30;72.50;;;;;;5050569;28;20033;-66
2023/04/15 04:43:23;;;;;;;6.47;5.07;;;8.20;72.50;;;;;;5051504;28;20096;-68
2023/04/15 04:45:49;;;;;;;8.27;6.30;;;8.30;72.60;;;;;;5051836;28;20483;-66
2023/04/15 04:48:15;;;;;;;10.27;6.88;;;8.20;72.60;;;;;;5052518;28;20029;-67
2023/04/15 04:50:41;;;;;;;8.02;5.72;;;8.20;73.40;;;;;;5052321;28;20035;-68
2023/04/15 04:53:07;;;;;;;7.70;5.80;;;8.10;73.40;;;;;;5061354;28;20033;-66
2023/04/15 04:55:35;;;;;;;8.35;5.72;;;8.10;73.70;;;;;;5051552;28;20047;-67
2023/04/15 04:58:01;;;;;;;9.32;6.50;;;8.10;73.90;;;;;;5053026;28;20016;-67
2023/04/15 05:00:27;;;;;;;7.30;6.18;;;8.00;74.20;;;;;;5047315;28;20020;-66
2023/04/15 05:02:52;;;;;;;8.90;6.82;;;8.10;74.20;;;;;;5047490;28;20083;-66
2023/04/15 05:05:18;;;;;;;7.65;6.50;;;8.10;74.40;;;;;;5051441;28;20032;-68
2023/04/15 05:07:43;;;;;;;8.93;6.47;;;8.10;74.50;;;;;;5051907;28;20029;-66
2023/04/15 05:10:09;;;;;;;8.23;6.60;;;8.10;74.40;;;;;;5071097;28;20553;-66
2023/04/15 05:12:36;;;;;;;8.98;7.07;;;8.10;74.50;;;;;;5051385;28;20453;-66
2023/04/15 05:15:02;;;;;;;6.78;5.72;;;8.00;75.40;;;;;;5051788;28;20025;-66
2023/04/15 05:17:29;;;;;;;8.70;6.05;;;8.10;75.30;;;;;;5050802;28;20082;-66
2023/04/15 05:19:55;;;;;;;9.07;6.70;;;8.10;75.10;;;;;;5053559;28;20062;-66
2023/04/15 05:22:21;;;;;;;9.55;6.45;;;8.20;75.10;;;;;;5050740;28;20082;-66
2023/04/15 05:24:46;;;;;;;8.35;6.05;;;8.20;75.00;;;;;;5050584;28;20029;-69
2023/04/15 05:27:12;;;;;;;7.28;5.70;;;8.30;74.80;;;;;;5051057;28;20298;-66
2023/04/15 05:29:37;;;;;;;8.20;6.03;;;8.40;74.60;;;;;;5049860;28;20024;-67
2023/04/15 05:32:03;;;;;;;8.68;6.82;;;8.70;74.50;;;;;;5045936;28;20053;-70
2023/04/15 05:34:29;;;;;;;9.57;6.70;;;9.30;73.80;;;;;;5061090;28;20028;-68
2023/04/15 05:36:55;;;;;;;7.20;5.90;;;9.70;72.60;;;;;;5045829;28;20021;-67
2023/04/15 05:39:20;;;;;;;7.82;6.05;;;10.20;71.20;;;;;;5047998;28;20036;-67
2023/04/15 05:41:46;;;;;;;7.78;5.80;;;10.80;69.70;;;;;;5049387;28;20025;-66
2023/04/15 05:44:12;;;;;;;6.85;5.88;;;11.50;67.90;;;;;;5044920;28;20558;-66
2023/04/15 05:46:37;;;;;;;7.53;5.90;;;11.80;66.30;;;;;;5041102;28;20529;-66
2023/04/15 05:49:03;;;;;;;6.85;5.97;;;11.80;65.80;;;;;;5031988;28;20075;-67
2023/04/15 05:51:29;;;;;;;8.00;6.93;;;11.80;65.80;;;;;;5050056;28;20055;-68
2023/04/15 05:53:54;;;;;;;7.80;6.18;;;11.60;66.00;;;;;;5054517;28;20017;-67
2023/04/15 05:56:20;;;;;;;7.07;5.47;;;11.80;66.00;;;;;;5044710;28;20032;-68
2023/04/15 05:58:46;;;;;;;8.73;6.70;;;11.90;65.70;;;;;;5050544;28;20383;-68
2023/04/15 06:01:11;;;;;;;7.82;6.10;;;11.90;65.60;;;;;;5049039;28;20028;-67
2023/04/15 06:03:37;;;;;;;8.15;6.72;;;12.10;65.70;;;;;;5051184;28;20061;-68
2023/04/15 06:06:03;;;;;;;7.85;6.38;;;12.70;64.90;;;;;;5063707;28;20025;-66
2023/04/15 06:08:29;;;;;;;6.53;5.47;;;13.50;63.40;;;;;;5052777;28;20033;-67
2023/04/15 06:10:54;;;;;;;8.00;5.50;;;14.10;61.50;;;;;;5037705;28;20395;-67
2023/04/15 06:13:20;;;;;;;6.63;5.93;;;14.50;60.40;;;;;;5050998;28;20494;-69
2023/04/15 06:15:46;;;;;;;7.15;6.05;;;14.50;59.60;;;;;;5054050;28;20047;-67
2023/04/15 06:18:11;;;;;;;7.78;6.20;;;14.30;59.70;;;;;;5047925;28;20020;-66
2023/04/15 06:20:37;;;;;;;7.95;6.40;;;14.30;59.60;;;;;;5053090;28;20495;-67
2023/04/15 06:23:03;;;;;;;7.63;5.90;;;14.20;59.70;;;;;;5048614;28;20487;-66
2023/04/15 06:25:28;;;;;;;7.63;5.95;;;13.90;60.00;;;;;;5049976;28;20158;-67
2023/04/15 06:27:54;;;;;;;8.80;7.32;;;13.50;60.90;;;;;;5050047;28;20032;-66
2023/04/15 06:30:19;;;;;;;8.73;6.47;;;13.10;61.50;;;;;;5048447;28;20036;-68
2023/04/15 06:32:46;;;;;;;6.38;5.13;;;12.90;62.60;;;;;;5049108;28;20139;-66
2023/04/15 06:35:11;;;;;;;7.57;5.78;;;12.80;62.80;;;;;;5047734;28;20052;-67
2023/04/15 06:37:37;;;;;;;8.77;6.65;;;12.80;62.90;;;;;;5050221;28;20021;-67
2023/04/15 06:40:04;;;;;;;7.82;5.90;;;12.60;62.90;;;;;;5049821;28;20028;-68
2023/04/15 06:42:29;;;;;;;7.72;6.22;;;12.40;63.30;;;;;;5049024;28;20024;-66
2023/04/15 06:44:55;;;;;;;9.02;6.68;;;12.00;63.90;;;;;;5049070;28;20025;-66
2023/04/15 06:47:21;;;;;;;8.60;7.10;;;11.70;64.80;;;;;;5049375;28;20047;-67
2023/04/15 06:49:46;;;;;;;7.82;6.13;;;11.40;65.80;;;;;;5050218;28;20091;-68
2023/04/15 06:52:12;;;;;;;10.05;7.97;;;11.30;66.30;;;;;;5049466;28;20021;-66
2023/04/15 06:54:38;;;;;;;11.20;8.40;;;11.00;67.10;;;;;;5050155;28;20028;-67
2023/04/15 06:57:05;;;;;;;8.38;6.82;;;10.90;67.70;;;;;;5031622;28;20025;-68
2023/04/15 06:59:31;;;;;;;8.50;6.95;;;10.70;68.10;;;;;;5050001;28;20423;-66
2023/04/15 07:01:57;;;;;;;9.25;7.32;;;10.70;68.20;;;;;;5046558;28;20040;-70
2023/04/15 07:04:23;;;;;;;9.95;7.28;;;10.70;68.40;;;;;;5030256;28;20029;-66
2023/04/15 07:06:48;;;;;;;8.93;6.97;;;10.60;68.70;;;;;;5050392;28;20033;-68
2023/04/15 07:09:14;;;;;;;8.63;6.57;;;10.50;69.00;;;;;;5049853;28;20028;-66
2023/04/15 07:11:39;;;;;;;9.43;7.15;;;10.50;69.10;;;;;;5049009;28;20028;-67
2023/04/15 07:14:05;;;;;;;9.52;7.25;;;10.40;69.30;;;;;;5049486;28;20467;-67
2023/04/15 07:16:31;;;;;;;8.18;6.47;;;10.40;69.50;;;;;;5031283;28;20013;-66
2023/04/15 07:18:57;;;;;;;9.90;7.45;;;10.40;69.70;;;;;;5050161;28;20021;-68
2023/04/15 07:21:23;;;;;;;8.55;6.55;;;10.40;69.80;;;;;;5048950;28;20028;-67
2023/04/15 07:23:48;;;;;;;9.75;7.55;;;10.30;69.80;;;;;;5048833;28;20518;-66
2023/04/15 07:26:14;;;;;;;9.18;7.35;;;10.30;70.10;;;;;;5049290;28;20029;-69
2023/04/15 07:28:40;;;;;;;10.25;8.10;;;10.30;70.30;;;;;;5049919;28;20104;-67
2023/04/15 07:31:05;;;;;;;9.32;7.25;;;10.30;70.60;;;;;;5057526;28;20021;-66
2023/04/15 07:33:31;;;;;;;9.55;6.70;;;10.30;70.60;;;;;;5048964;28;20032;-66
2023/04/15 07:35:57;;;;;;;9.80;7.20;;;10.40;70.60;;;;;;5057470;28;20070;-67
2023/04/15 07:38:22;;;;;;;9.85;7.18;;;10.40;70.60;;;;;;5062843;28;20033;-66
2023/04/15 07:40:48;;;;;;;9.65;7.30;;;10.50;70.70;;;;;;5059753;28;20029;-67
2023/04/15 07:43:14;;;;;;;8.80;6.78;;;10.50;70.80;;;;;;5049523;28;20029;-65
2023/04/15 07:45:40;;;;;;;9.23;7.35;;;10.60;70.70;;;;;;5057876;28;20020;-66
2023/04/15 07:48:05;;;;;;;9.60;6.72;;;10.60;70.60;;;;;;5060811;28;20121;-66
2023/04/15 07:50:31;;;;;;;8.88;6.57;;;10.70;70.40;;;;;;5062175;28;20033;-67
2023/04/15 07:52:56;;;;;;;9.13;7.15;;;10.90;70.00;;;;;;5049359;28;20706;-66
2023/04/15 07:55:22;;;;;;;7.65;6.68;;;11.00;69.80;;;;;;5050356;28;20017;-66
2023/04/15 07:57:48;;;;;;;5.97;5.30;;;11.20;70.10;;;;;;5049336;28;20096;-66
2023/04/15 08:00:15;;;;;;;8.07;6.88;;;11.50;68.90;;;;;;5052700;28;20024;-67
2023/04/15 08:02:42;;;;;;;8.80;6.57;;;11.70;68.40;;;;;;5048292;28;20499;-66
2023/04/15 08:05:09;;;;;;;7.28;6.18;;;11.90;67.80;;;;;;5051149;28;20020;-67
2023/04/15 08:07:38;;;;;;;8.35;7.13;;;12.20;66.90;;;;;;5049198;28;20631;-66
2023/04/15 08:10:04;;;;;;;10.20;7.03;;;12.40;66.00;;;;;;5049224;28;20560;-66
2023/04/15 08:12:30;;;;;;;7.15;5.63;;;12.40;65.30;;;;;;5049282;28;20087;-66
2023/04/15 08:14:56;;;;;;;8.05;6.00;;;12.50;65.00;;;;;;5049624;28;20033;-67
2023/04/15 08:17:22;;;;;;;7.75;6.00;;;12.40;64.80;;;;;;5061154;28;20078;-67
2023/04/15 08:19:47;;;;;;;7.15;5.72;;;12.30;65.10;;;;;;5052881;28;20024;-66
2023/04/15 08:22:13;;;;;;;8.50;5.53;;;12.20;65.40;;;;;;5058658;28;20487;-66
2023/04/15 08:24:39;;;;;;;5.80;4.70;;;12.20;65.50;;;;;;5052464;28;20063;-66
2023/04/15 08:27:05;;;;;;;6.13;4.72;;;12.20;65.40;;;;;;5061235;28;20036;-67
2023/04/15 08:29:34;;;;;;;6.47;4.65;;;12.20;65.30;;;;;;5052776;28;20104;-66
2023/04/15 08:32:03;;;;;;;6.43;4.47;;;12.30;65.10;;;;;;5062015;28;20106;-67
2023/04/15 08:34:28;;;;;;;5.53;4.25;;;12.40;64.90;;;;;;5052681;28;20048;-67
2023/04/15 08:36:59;;;;;;;5.00;3.75;;;12.50;64.60;;;;;;5054717;28;20479;-67
2023/04/15 08:39:26;;;;;;;6.22;4.72;;;12.70;64.30;;;;;;5037727;28;20044;-66
2023/04/15 08:41:55;;;;;;;6.18;4.03;;;12.60;63.80;;;;;;5051120;28;20365;-68
2023/04/15 08:44:22;;;;;;;5.78;4.40;;;12.60;63.70;;;;;;5050229;28;20048;-68
2023/04/15 08:46:48;;;;;;;5.10;4.07;;;12.50;64.00;;;;;;5033338;28;20107;-66
2023/04/15 08:49:16;;;;;;;4.47;3.63;;;12.40;64.10;;;;;;5053261;28;20431;-66
2023/04/15 08:51:42;;;;;;;5.55;3.78;;;12.40;64.20;;;;;;5051634;28;20032;-67
2023/04/15 08:54:09;;;;;;;3.53;3.22;;;12.30;64.20;;;;;;5051139;28;20032;-68
2023/04/15 08:56:38;;;;;;;3.78;3.17;;;12.30;64.40;;;;;;5050967;28;20019;-67
2023/04/15 08:59:04;;;;;;;4.65;3.40;;;12.40;64.50;;;;;;5051605;28;20367;-66
2023/04/15 09:01:31;;;;;;;4.57;3.97;;;12.50;64.30;;;;;;5044582;28;20025;-66
2023/04/15 09:03:57;;;;;;;6.90;4.22;;;12.40;64.10;;;;;;5048092;28;20028;-68
2023/04/15 09:06:23;;;;;;;4.97;3.47;;;12.30;64.00;;;;;;5050127;28;20020;-65
2023/04/15 09:08:50;;;;;;;4.63;3.58;;;12.30;64.20;;;;;;5052510;28;20025;-66
2023/04/15 09:11:17;;;;;;;4.45;3.58;;;12.30;64.90;;;;;;5051944;28;20084;-65
2023/04/15 09:13:42;;;;;;;4.43;3.28;;;12.40;64.20;;;;;;5050730;28;20021;-66
2023/04/15 09:16:09;;;;;;;5.55;4.00;;;12.50;64.20;;;;;;5052915;28;20407;-67
2023/04/15 09:18:37;;;;;;;5.18;3.90;;;12.50;64.20;;;;;;5032638;28;20115;-66
2023/04/15 09:21:10;;;;;;;4.22;3.60;;;12.50;64.40;;;;;;5033561;28;20372;-67
2023/04/15 09:23:36;;;;;;;5.88;3.95;;;12.60;64.30;;;;;;5047485;28;20519;-68
2023/04/15 09:26:03;;;;;;;5.68;4.60;;;12.70;64.30;;;;;;5034043;28;20025;-66
2023/04/15 09:28:29;;;;;;;6.43;4.55;;;12.80;64.20;;;;;;5050300;28;20024;-66
2023/04/15 09:30:56;;;;;;;7.28;4.25;;;12.80;64.20;;;;;;5050720;28;20028;-67
2023/04/15 09:33:30;;;;;;;5.65;4.15;;;12.60;64.20;;;;;;5050726;28;20178;-67
2023/04/15 09:36:00;;;;;;;5.05;3.92;;;12.70;64.50;;;;;;5030405;28;20025;-65
2023/04/15 09:38:26;;;;;;;5.38;4.10;;;12.70;64.30;;;;;;5046705;28;20495;-65
2023/04/15 09:40:52;;;;;;;5.05;4.18;;;12.80;64.40;;;;;;5051132;28;20235;-67
2023/04/15 09:43:18;;;;;;;4.75;3.95;;;12.90;64.30;;;;;;5050143;28;20021;-67
2023/04/15 09:45:52;;;;;;;6.90;4.47;;;12.90;64.10;;;;;;5050289;28;20036;-67
2023/04/15 09:48:27;;;;;;;5.40;3.83;;;13.00;63.70;;;;;;5048752;28;20035;-67
2023/04/15 09:50:57;;;;;;;4.18;3.70;;;13.00;63.70;;;;;;5050489;28;20028;-67
2023/04/15 09:53:24;;;;;;;5.05;3.75;;;13.10;63.90;;;;;;5052220;28;20078;-69
2023/04/15 09:55:55;;;;;;;5.35;4.00;;;13.20;63.60;;;;;;5046024;28;20111;-67
2023/04/15 09:58:22;;;;;;;5.05;3.75;;;13.20;62.90;;;;;;5049261;28;20081;-67
2023/04/15 10:00:49;;;;;;;5.40;3.65;;;13.30;62.40;;;;;;5049776;28;20036;-66
2023/04/15 10:03:45;;;;;;;4.25;3.47;;;13.20;62.50;;;;;;5050304;28;20025;-65
2023/04/15 10:06:11;;;;;;;4.68;3.60;;;13.30;62.50;;;;;;5024065;28;20095;-66
2023/04/15 10:08:37;;;;;;;4.75;3.58;;;13.40;62.60;;;;;;5046046;28;20025;-66
2023/04/15 10:11:03;;;;;;;5.20;4.10;;;13.40;62.70;;;;;;5044443;28;20037;-65
2023/04/15 10:13:36;;;;;;;4.70;3.95;;;13.60;62.60;;;;;;5048352;28;20044;-66
2023/04/15 10:16:09;;;;;;;5.50;3.60;;;13.60;61.90;;;;;;5066126;28;20025;-68
2023/04/15 10:18:39;;;;;;;4.72;3.40;;;13.60;61.70;;;;;;5049830;28;20028;-66
2023/04/15 10:21:05;;;;;;;4.72;3.60;;;13.60;61.60;;;;;;5044999;28;20013;-67
2023/04/15 10:23:32;;;;;;;3.33;2.80;;;13.70;61.30;;;;;;5049396;28;21177;-65
2023/04/15 10:25:58;;;;;;;4.07;3.13;;;13.80;61.30;;;;;;5048230;28;20032;-67
2023/04/15 10:28:25;;;;;;;4.00;3.17;;;13.90;60.80;;;;;;5048499;28;20021;-69
2023/04/15 10:30:52;;;;;;;5.85;3.45;;;13.90;60.20;;;;;;5048005;28;20060;-67
2023/04/15 10:33:21;;;;;;;4.10;3.17;;;13.80;60.30;;;;;;5047857;28;20092;-65
2023/04/15 10:35:48;;;;;;;5.85;3.95;;;13.80;60.60;;;;;;5032808;28;20020;-66
2023/04/15 10:38:34;;;;;;;4.45;3.63;;;13.80;60.80;;;;;;5047650;28;20691;-67
2023/04/15 10:41:23;;;;;;;3.88;3.20;;;13.80;60.90;;;;;;5049981;28;21004;-66
2023/04/15 10:43:59;;;;;;;3.78;3.13;;;13.80;61.10;;;;;;5048447;28;20060;-66
2023/04/15 10:46:41;;;;;;;4.78;3.00;;;14.00;61.20;;;;;;5049062;28;20086;-66
2023/04/15 10:49:15;;;;;;;3.28;2.90;;;14.00;61.10;;;;;;5046351;28;20476;-67
2023/04/15 10:51:44;;;;;;;3.78;2.53;;;14.20;60.70;;;;;;5047557;28;20598;-66
2023/04/15 10:54:32;;;;;;;3.75;2.90;;;14.30;60.30;;;;;;5047969;28;20049;-66
2023/04/15 10:57:01;;;;;;;5.15;3.10;;;14.20;59.50;;;;;;5047109;28;20040;-67
2023/04/15 11:00:10;;;;;;;4.82;3.42;;;14.20;59.30;;;;;;5048204;28;20573;-67
2023/04/15 11:02:47;;;;;;;5.18;3.38;;;14.20;59.30;;;;;;5047514;28;20028;-66
2023/04/15 11:05:15;;;;;;;4.75;3.35;;;14.20;59.30;;;;;;5048402;28;20024;-67
2023/04/15 11:07:43;;;;;;;4.25;3.28;;;14.20;59.50;;;;;;5047182;28;20033;-66
2023/04/15 11:10:24;;;;;;;4.40;2.83;;;14.10;59.80;;;;;;5026428;28;20040;-66
2023/04/15 11:12:51;;;;;;;2.92;2.55;;;14.30;60.00;;;;;;5044512;28;20040;-66
2023/04/15 11:15:31;;;;;;;4.28;2.80;;;14.40;59.80;;;;;;5046362;28;20033;-68
2023/04/15 11:17:58;;;;;;;4.40;3.08;;;14.50;59.30;;;;;;5029113;28;20632;-68
2023/04/15 11:20:24;;;;;;;3.05;2.50;;;14.50;59.00;;;;;;5040886;28;20025;-67
2023/04/15 11:22:52;;;;;;;4.00;2.60;;;14.50;58.80;;;;;;5048654;28;20017;-67
2023/04/15 11:25:25;;;;;;;2.90;2.30;;;14.60;58.60;;;;;;5043973;28;20033;-68
2023/04/15 11:27:53;;;;;;;3.03;2.10;;;14.70;58.20;;;;;;5047883;28;20025;-66
2023/04/15 11:30:21;;;;;;;2.28;2.08;;;14.80;58.00;;;;;;5047865;28;20029;-66
2023/04/15 11:32:51;;;;;;;2.35;2.00;;;14.90;57.50;;;;;;5047411;28;20060;-67
2023/04/15 11:35:18;;;;;;;3.30;2.20;;;14.90;56.90;;;;;;5047650;28;20395;-68
2023/04/15 11:37:44;;;;;;;2.33;2.00;;;15.00;57.00;;;;;;5049460;28;20021;-68
2023/04/15 11:40:11;;;;;;;2.30;1.80;;;15.10;56.60;;;;;;5047793;28;20087;-67
2023/04/15 11:42:36;;;;;;;3.08;1.95;;;15.10;56.00;;;;;;5046866;28;20029;-67
2023/04/15 11:45:10;;;;;;;2.53;1.63;;;15.00;55.20;;;;;;5049232;28;20108;-70
2023/04/15 11:47:39;;;;;;;2.65;1.50;;;15.10;55.70;;;;;;5047694;28;20048;-66
2023/04/15 11:50:15;;;;;;;3.42;1.77;;;15.20;55.30;;;;;;5048950;28;20020;-67
2023/04/15 11:52:51;;;;;;;2.50;1.90;;;15.30;55.40;;;;;;5051591;28;20033;-66
2023/04/15 11:55:17;;;;;;;2.08;1.80;;;15.10;55.00;;;;;;5052252;28;20017;-67
2023/04/15 11:57:43;;;;;;;2.28;1.58;;;15.10;54.90;;;;;;5051057;28;20037;-69
2023/04/15 12:00:09;;;;;;;1.73;1.60;;;15.10;54.90;;;;;;5048379;28;20498;-68
2023/04/15 12:02:38;;;;;;;3.30;1.70;;;15.20;54.90;;;;;;5050173;28;20059;-67
2023/04/15 12:05:07;;;;;;;2.10;1.60;;;15.20;54.50;;;;;;5051313;28;20025;-67
2023/04/15 12:07:33;;;;;;;2.13;1.60;;;15.30;54.40;;;;;;5050454;28;20017;-68
2023/04/15 12:09:59;;;;;;;1.75;1.50;;;15.30;54.60;;;;;;5050879;28;20641;-67
2023/04/15 12:12:28;;;;;;;2.97;1.70;;;15.30;54.60;;;;;;5050011;28;20074;-66
2023/04/15 12:14:55;;;;;;;3.17;1.60;;;15.20;54.90;;;;;;5050596;28;20021;-69
2023/04/15 12:17:22;;;;;;;1.40;1.30;;;15.30;54.90;;;;;;5051051;28;20124;-67
2023/04/15 12:19:55;;;;;;;3.30;1.42;;;15.30;54.90;;;;;;5053411;28;20116;-66
2023/04/15 12:22:21;;;;;;;1.50;1.40;;;15.30;54.70;;;;;;5051288;28;20033;-66
2023/04/15 12:24:47;;;;;;;1.73;1.58;;;15.20;55.30;;;;;;5038415;28;20029;-67
2023/04/15 12:27:16;;;;;;;2.28;1.50;;;15.20;55.20;;;;;;5050914;28;20031;-67
2023/04/15 12:29:42;;;;;;;2.63;1.80;;;15.20;55.10;;;;;;5053159;28;20033;-65
2023/04/15 12:32:12;;;;;;;1.90;1.30;;;15.20;55.20;;;;;;5050670;28;20025;-67
2023/04/15 12:34:40;;;;;;;1.80;1.52;;;15.20;55.10;;;;;;5054033;28;20391;-67
2023/04/15 12:37:10;;;;;;;1.45;1.30;;;15.30;55.20;;;;;;5038842;28;20043;-66
2023/04/15 12:39:39;;;;;;;3.00;1.77;;;15.50;55.10;;;;;;5054256;28;20024;-67
2023/04/15 12:42:05;;;;;;;1.80;1.55;;;15.60;54.60;;;;;;5050202;28;20048;-67
2023/04/15 12:44:32;;;;;;;1.70;1.42;;;15.60;54.70;;;;;;5054739;28;20487;-67
2023/04/15 12:46:58;;;;;;;3.83;1.90;;;15.60;54.70;;;;;;5050070;28;20052;-66